sensor_id;sensor_type;location;lat;lon;timestamp;P1;durP1;ratioP1;P2;durP2;ratioP2
28934;SDS011;16044;52.726;-2.108;2023-09-12T00:02:29;6.75;;;3.50;;
28934;SDS011;16044;52.726;-2.108;2023-09-12T00:05:00;4.85;;;3.15;;
28934;SDS011;16044;52.726;-2.108;2023-09-12T00:07:30;9.32;;;3.15;;
28934;SDS011;16044;52.726;-2.108;2023-09-12T00:10:01;8.35;;;3.70;;
28934;SDS011;16044;52.726;-2.108;2023-09-12T00:12:31;5.80;;;3.50;;
28934;SDS011;16044;52.726;-2.108;2023-09-12T00:15:01;7.25;;;3.53;;
28934;SDS011;16044;52.726;-2.108;2023-09-12T00:17:37;6.80;;;3.65;;
28934;SDS011;16044;52.726;-2.108;2023-09-12T00:20:08;5.57;;;3.28;;
28934;SDS011;16044;52.726;-2.108;2023-09-12T00:22:39;5.60;;;3.58;;
28934;SDS011;16044;52.726;-2.108;2023-09-12T00:25:09;7.85;;;4.18;;
28934;SDS011;16044;52.726;-2.108;2023-09-12T00:27:39;6.75;;;3.50;;
28934;SDS011;16044;52.726;-2.108;2023-09-12T00:30:10;5.55;;;3.50;;
28934;SDS011;16044;52.726;-2.108;2023-09-12T00:32:45;7.43;;;3.60;;
28934;SDS011;16044;52.726;-2.108;2023-09-12T00:35:16;5.93;;;3.53;;
28934;SDS011;16044;52.726;-2.108;2023-09-12T00:37:46;7.80;;;3.30;;
28934;SDS011;16044;52.726;-2.108;2023-09-12T00:40:16;5.85;;;3.22;;
28934;SDS011;16044;52.726;-2.108;2023-09-12T00:42:47;6.30;;;3.30;;
28934;SDS011;16044;52.726;-2.108;2023-09-12T00:45:17;6.22;;;3.30;;
28934;SDS011;16044;52.726;-2.108;2023-09-12T00:47:50;11.02;;;3.60;;
28934;SDS011;16044;52.726;-2.108;2023-09-12T00:50:21;8.50;;;3.47;;
28934;SDS011;16044;52.726;-2.108;2023-09-12T00:52:53;13.48;;;3.95;;
28934;SDS011;16044;52.726;-2.108;2023-09-12T00:55:24;6.78;;;3.40;;
28934;SDS011;16044;52.726;-2.108;2023-09-12T00:57:54;7.28;;;3.20;;
28934;SDS011;16044;52.726;-2.108;2023-09-12T01:00:25;7.95;;;3.53;;
28934;SDS011;16044;52.726;-2.108;2023-09-12T01:02:58;5.32;;;3.30;;
28934;SDS011;16044;52.726;-2.108;2023-09-12T01:05:30;6.68;;;3.53;;
28934;SDS011;16044;52.726;-2.108;2023-09-12T01:08:00;7.18;;;3.75;;
28934;SDS011;16044;52.726;-2.108;2023-09-12T01:10:31;7.22;;;3.78;;
28934;SDS011;16044;52.726;-2.108;2023-09-12T01:13:01;7.20;;;4.07;;
28934;SDS011;16044;52.726;-2.108;2023-09-12T01:15:32;6.65;;;3.67;;
28934;SDS011;16044;52.726;-2.108;2023-09-12T01:18:05;5.25;;;3.60;;
28934;SDS011;16044;52.726;-2.108;2023-09-12T01:20:36;7.50;;;3.92;;
28934;SDS011;16044;52.726;-2.108;2023-09-12T01:23:17;6.15;;;3.75;;
28934;SDS011;16044;52.726;-2.108;2023-09-12T01:29:02;9.25;;;3.80;;
28934;SDS011;16044;52.726;-2.108;2023-09-12T01:31:36;5.30;;;3.58;;
28934;SDS011;16044;52.726;-2.108;2023-09-12T01:34:08;8.02;;;3.60;;
28934;SDS011;16044;52.726;-2.108;2023-09-12T01:36:38;8.45;;;3.92;;
28934;SDS011;16044;52.726;-2.108;2023-09-12T01:39:09;7.40;;;3.83;;
28934;SDS011;16044;52.726;-2.108;2023-09-12T01:41:40;6.10;;;3.78;;
28934;SDS011;16044;52.726;-2.108;2023-09-12T01:44:16;5.47;;;3.70;;
28934;SDS011;16044;52.726;-2.108;2023-09-12T01:46:49;11.32;;;3.92;;
28934;SDS011;16044;52.726;-2.108;2023-09-12T01:49:22;8.18;;;4.25;;
28934;SDS011;16044;52.726;-2.108;2023-09-12T01:51:54;7.78;;;3.70;;
28934;SDS011;16044;52.726;-2.108;2023-09-12T01:54:27;11.45;;;3.95;;
28934;SDS011;16044;52.726;-2.108;2023-09-12T01:56:58;5.55;;;3.47;;
28934;SDS011;16044;52.726;-2.108;2023-09-12T01:59:31;6.10;;;3.80;;
28934;SDS011;16044;52.726;-2.108;2023-09-12T02:02:01;8.55;;;3.80;;
28934;SDS011;16044;52.726;-2.108;2023-09-12T02:04:33;7.38;;;3.75;;
28934;SDS011;16044;52.726;-2.108;2023-09-12T02:07:04;11.65;;;4.30;;
28934;SDS011;16044;52.726;-2.108;2023-09-12T02:09:34;10.02;;;4.20;;
28934;SDS011;16044;52.726;-2.108;2023-09-12T02:12:05;7.00;;;3.85;;
28934;SDS011;16044;52.726;-2.108;2023-09-12T02:14:38;7.95;;;3.67;;
28934;SDS011;16044;52.726;-2.108;2023-09-12T02:17:09;7.28;;;3.92;;
28934;SDS011;16044;52.726;-2.108;2023-09-12T02:19:39;6.50;;;4.18;;
28934;SDS011;16044;52.726;-2.108;2023-09-12T02:22:09;9.25;;;4.50;;
28934;SDS011;16044;52.726;-2.108;2023-09-12T02:24:40;10.45;;;4.00;;
28934;SDS011;16044;52.726;-2.108;2023-09-12T02:27:10;9.68;;;3.40;;
28934;SDS011;16044;52.726;-2.108;2023-09-12T02:29:44;7.43;;;4.05;;
28934;SDS011;16044;52.726;-2.108;2023-09-12T02:32:14;6.78;;;3.75;;
28934;SDS011;16044;52.726;-2.108;2023-09-12T02:34:44;5.65;;;3.67;;
28934;SDS011;16044;52.726;-2.108;2023-09-12T02:37:15;10.10;;;3.78;;
28934;SDS011;16044;52.726;-2.108;2023-09-12T02:39:45;7.13;;;3.92;;
28934;SDS011;16044;52.726;-2.108;2023-09-12T02:42:15;7.47;;;3.65;;
28934;SDS011;16044;52.726;-2.108;2023-09-12T02:44:48;9.05;;;3.65;;
28934;SDS011;16044;52.726;-2.108;2023-09-12T02:47:19;6.03;;;3.80;;
28934;SDS011;16044;52.726;-2.108;2023-09-12T02:49:49;8.82;;;3.45;;
28934;SDS011;16044;52.726;-2.108;2023-09-12T02:52:19;6.05;;;3.55;;
28934;SDS011;16044;52.726;-2.108;2023-09-12T02:54:50;7.13;;;3.80;;
28934;SDS011;16044;52.726;-2.108;2023-09-12T02:57:20;7.63;;;3.88;;
28934;SDS011;16044;52.726;-2.108;2023-09-12T02:59:53;5.65;;;3.55;;
28934;SDS011;16044;52.726;-2.108;2023-09-12T03:02:23;6.20;;;3.30;;
28934;SDS011;16044;52.726;-2.108;2023-09-12T03:04:56;5.65;;;3.00;;
28934;SDS011;16044;52.726;-2.108;2023-09-12T03:07:26;5.70;;;3.10;;
28934;SDS011;16044;52.726;-2.108;2023-09-12T03:09:56;5.97;;;3.20;;
28934;SDS011;16044;52.726;-2.108;2023-09-12T03:12:27;6.10;;;2.97;;
28934;SDS011;16044;52.726;-2.108;2023-09-12T03:15:00;6.57;;;2.55;;
28934;SDS011;16044;52.726;-2.108;2023-09-12T03:17:32;5.53;;;3.10;;
28934;SDS011;16044;52.726;-2.108;2023-09-12T03:20:03;5.78;;;2.78;;
28934;SDS011;16044;52.726;-2.108;2023-09-12T03:22:35;4.43;;;2.65;;
28934;SDS011;16044;52.726;-2.108;2023-09-12T03:25:06;7.97;;;2.70;;
28934;SDS011;16044;52.726;-2.108;2023-09-12T03:27:37;6.03;;;2.67;;
28934;SDS011;16044;52.726;-2.108;2023-09-12T03:30:10;6.68;;;2.40;;
28934;SDS011;16044;52.726;-2.108;2023-09-12T03:32:41;3.92;;;2.50;;
28934;SDS011;16044;52.726;-2.108;2023-09-12T03:35:12;5.00;;;2.38;;
28934;SDS011;16044;52.726;-2.108;2023-09-12T03:37:42;5.38;;;2.67;;
28934;SDS011;16044;52.726;-2.108;2023-09-12T03:40:12;6.38;;;2.50;;
28934;SDS011;16044;52.726;-2.108;2023-09-12T03:42:43;6.93;;;2.67;;
28934;SDS011;16044;52.726;-2.108;2023-09-12T03:45:16;5.97;;;2.60;;
28934;SDS011;16044;52.726;-2.108;2023-09-12T03:47:47;3.80;;;2.20;;
28934;SDS011;16044;52.726;-2.108;2023-09-12T03:50:17;3.30;;;2.13;;
28934;SDS011;16044;52.726;-2.108;2023-09-12T03:52:48;6.65;;;2.33;;
28934;SDS011;16044;52.726;-2.108;2023-09-12T03:55:18;6.25;;;2.70;;
28934;SDS011;16044;52.726;-2.108;2023-09-12T03:57:48;7.90;;;2.85;;
28934;SDS011;16044;52.726;-2.108;2023-09-12T04:00:21;5.47;;;2.55;;
28934;SDS011;16044;52.726;-2.108;2023-09-12T04:02:52;7.78;;;2.70;;
28934;SDS011;16044;52.726;-2.108;2023-09-12T04:05:23;6.00;;;2.50;;
28934;SDS011;16044;52.726;-2.108;2023-09-12T04:07:54;6.38;;;2.70;;
28934;SDS011;16044;52.726;-2.108;2023-09-12T04:10:24;6.72;;;2.67;;
28934;SDS011;16044;52.726;-2.108;2023-09-12T04:12:55;5.18;;;3.15;;
28934;SDS011;16044;52.726;-2.108;2023-09-12T04:15:28;6.05;;;3.50;;
28934;SDS011;16044;52.726;-2.108;2023-09-12T04:17:58;4.50;;;3.08;;
28934;SDS011;16044;52.726;-2.108;2023-09-12T04:20:29;6.13;;;2.60;;
28934;SDS011;16044;52.726;-2.108;2023-09-12T04:23:00;4.57;;;3.10;;
28934;SDS011;16044;52.726;-2.108;2023-09-12T04:25:31;6.85;;;2.70;;
28934;SDS011;16044;52.726;-2.108;2023-09-12T04:28:02;8.98;;;2.53;;
28934;SDS011;16044;52.726;-2.108;2023-09-12T04:30:36;5.55;;;2.65;;
28934;SDS011;16044;52.726;-2.108;2023-09-12T04:35:39;4.13;;;2.22;;
28934;SDS011;16044;52.726;-2.108;2023-09-12T04:38:09;6.22;;;2.40;;
28934;SDS011;16044;52.726;-2.108;2023-09-12T04:40:41;4.30;;;2.45;;
28934;SDS011;16044;52.726;-2.108;2023-09-12T04:43:12;4.20;;;2.38;;
28934;SDS011;16044;52.726;-2.108;2023-09-12T04:45:44;4.80;;;2.55;;
28934;SDS011;16044;52.726;-2.108;2023-09-12T04:48:15;5.35;;;2.20;;
28934;SDS011;16044;52.726;-2.108;2023-09-12T04:50:45;4.40;;;2.17;;
28934;SDS011;16044;52.726;-2.108;2023-09-12T04:53:16;5.00;;;2.67;;
28934;SDS011;16044;52.726;-2.108;2023-09-12T04:55:46;7.18;;;2.55;;
28934;SDS011;16044;52.726;-2.108;2023-09-12T04:58:16;6.53;;;2.35;;
28934;SDS011;16044;52.726;-2.108;2023-09-12T05:00:49;7.25;;;2.83;;
28934;SDS011;16044;52.726;-2.108;2023-09-12T05:03:20;9.18;;;3.28;;
28934;SDS011;16044;52.726;-2.108;2023-09-12T05:05:53;7.18;;;2.92;;
28934;SDS011;16044;52.726;-2.108;2023-09-12T05:08:24;6.32;;;3.22;;
28934;SDS011;16044;52.726;-2.108;2023-09-12T05:10:55;6.28;;;2.78;;
28934;SDS011;16044;52.726;-2.108;2023-09-12T05:13:25;7.35;;;2.55;;
28934;SDS011;16044;52.726;-2.108;2023-09-12T05:15:58;5.63;;;2.33;;
28934;SDS011;16044;52.726;-2.108;2023-09-12T05:18:29;8.82;;;2.08;;
28934;SDS011;16044;52.726;-2.108;2023-09-12T05:20:59;8.27;;;2.70;;
28934;SDS011;16044;52.726;-2.108;2023-09-12T05:23:30;6.90;;;2.40;;
28934;SDS011;16044;52.726;-2.108;2023-09-12T05:26:01;6.65;;;2.30;;
28934;SDS011;16044;52.726;-2.108;2023-09-12T05:28:33;2.92;;;1.80;;
28934;SDS011;16044;52.726;-2.108;2023-09-12T05:31:06;5.85;;;2.60;;
28934;SDS011;16044;52.726;-2.108;2023-09-12T05:33:37;3.58;;;2.00;;
28934;SDS011;16044;52.726;-2.108;2023-09-12T05:36:07;4.40;;;2.20;;
28934;SDS011;16044;52.726;-2.108;2023-09-12T05:38:38;4.85;;;2.28;;
28934;SDS011;16044;52.726;-2.108;2023-09-12T05:41:08;5.38;;;2.08;;
28934;SDS011;16044;52.726;-2.108;2023-09-12T05:43:39;3.65;;;2.42;;
28934;SDS011;16044;52.726;-2.108;2023-09-12T05:46:12;5.07;;;2.50;;
28934;SDS011;16044;52.726;-2.108;2023-09-12T05:48:42;4.13;;;2.80;;
28934;SDS011;16044;52.726;-2.108;2023-09-12T05:51:13;5.32;;;2.75;;
28934;SDS011;16044;52.726;-2.108;2023-09-12T05:53:43;4.40;;;2.90;;
28934;SDS011;16044;52.726;-2.108;2023-09-12T05:56:13;4.50;;;2.45;;
28934;SDS011;16044;52.726;-2.108;2023-09-12T05:58:44;6.22;;;2.40;;
28934;SDS011;16044;52.726;-2.108;2023-09-12T06:01:19;4.75;;;2.67;;
28934;SDS011;16044;52.726;-2.108;2023-09-12T06:03:49;5.22;;;2.88;;
28934;SDS011;16044;52.726;-2.108;2023-09-12T06:06:21;6.15;;;3.10;;
28934;SDS011;16044;52.726;-2.108;2023-09-12T06:08:51;9.27;;;3.22;;
28934;SDS011;16044;52.726;-2.108;2023-09-12T06:11:22;6.20;;;3.63;;
28934;SDS011;16044;52.726;-2.108;2023-09-12T06:13:52;7.85;;;3.35;;
28934;SDS011;16044;52.726;-2.108;2023-09-12T06:16:25;6.60;;;3.10;;
28934;SDS011;16044;52.726;-2.108;2023-09-12T06:18:56;4.30;;;2.80;;
28934;SDS011;16044;52.726;-2.108;2023-09-12T06:21:27;4.43;;;3.13;;
28934;SDS011;16044;52.726;-2.108;2023-09-12T06:24:08;6.18;;;3.08;;
28934;SDS011;16044;52.726;-2.108;2023-09-12T06:26:40;7.28;;;3.33;;
28934;SDS011;16044;52.726;-2.108;2023-09-12T06:29:10;4.13;;;2.58;;
28934;SDS011;16044;52.726;-2.108;2023-09-12T06:31:43;5.10;;;2.70;;
28934;SDS011;16044;52.726;-2.108;2023-09-12T06:34:14;5.05;;;2.78;;
28934;SDS011;16044;52.726;-2.108;2023-09-12T06:36:44;3.67;;;2.78;;
28934;SDS011;16044;52.726;-2.108;2023-09-12T06:39:14;3.80;;;2.75;;
28934;SDS011;16044;52.726;-2.108;2023-09-12T06:41:45;5.75;;;2.75;;
28934;SDS011;16044;52.726;-2.108;2023-09-12T06:44:15;4.38;;;2.90;;
28934;SDS011;16044;52.726;-2.108;2023-09-12T06:46:48;4.15;;;2.65;;
28934;SDS011;16044;52.726;-2.108;2023-09-12T06:49:18;3.33;;;2.78;;
28934;SDS011;16044;52.726;-2.108;2023-09-12T06:51:49;5.22;;;3.30;;
28934;SDS011;16044;52.726;-2.108;2023-09-12T06:54:19;4.68;;;3.35;;
28934;SDS011;16044;52.726;-2.108;2023-09-12T06:56:49;4.80;;;3.45;;
28934;SDS011;16044;52.726;-2.108;2023-09-12T06:59:20;5.82;;;3.78;;
28934;SDS011;16044;52.726;-2.108;2023-09-12T07:01:53;5.20;;;3.35;;
28934;SDS011;16044;52.726;-2.108;2023-09-12T07:04:23;4.95;;;3.30;;
28934;SDS011;16044;52.726;-2.108;2023-09-12T07:06:53;4.95;;;3.30;;
28934;SDS011;16044;52.726;-2.108;2023-09-12T07:09:24;5.82;;;3.70;;
28934;SDS011;16044;52.726;-2.108;2023-09-12T07:11:54;4.30;;;3.05;;
28934;SDS011;16044;52.726;-2.108;2023-09-12T07:14:24;5.40;;;2.85;;
28934;SDS011;16044;52.726;-2.108;2023-09-12T07:16:59;5.88;;;3.38;;
28934;SDS011;16044;52.726;-2.108;2023-09-12T07:19:31;4.95;;;3.50;;
28934;SDS011;16044;52.726;-2.108;2023-09-12T07:22:02;5.93;;;2.90;;
28934;SDS011;16044;52.726;-2.108;2023-09-12T07:24:33;4.47;;;3.50;;
28934;SDS011;16044;52.726;-2.108;2023-09-12T07:27:04;6.35;;;2.80;;
28934;SDS011;16044;52.726;-2.108;2023-09-12T07:29:34;3.72;;;2.85;;
28934;SDS011;16044;52.726;-2.108;2023-09-12T07:32:07;4.88;;;3.00;;
28934;SDS011;16044;52.726;-2.108;2023-09-12T07:34:37;5.20;;;2.65;;
28934;SDS011;16044;52.726;-2.108;2023-09-12T07:37:12;4.90;;;2.80;;
28934;SDS011;16044;52.726;-2.108;2023-09-12T07:39:42;5.53;;;3.00;;
28934;SDS011;16044;52.726;-2.108;2023-09-12T07:42:12;2.83;;;2.47;;
28934;SDS011;16044;52.726;-2.108;2023-09-12T07:44:43;4.10;;;2.30;;
28934;SDS011;16044;52.726;-2.108;2023-09-12T07:47:16;5.72;;;3.30;;
28934;SDS011;16044;52.726;-2.108;2023-09-12T07:49:52;6.28;;;2.90;;
28934;SDS011;16044;52.726;-2.108;2023-09-12T07:52:23;4.95;;;2.97;;
28934;SDS011;16044;52.726;-2.108;2023-09-12T07:54:53;5.65;;;3.25;;
28934;SDS011;16044;52.726;-2.108;2023-09-12T07:57:29;4.95;;;3.08;;
28934;SDS011;16044;52.726;-2.108;2023-09-12T08:00:01;4.40;;;3.10;;
28934;SDS011;16044;52.726;-2.108;2023-09-12T08:02:39;4.90;;;3.20;;
28934;SDS011;16044;52.726;-2.108;2023-09-12T08:05:10;5.47;;;3.00;;
28934;SDS011;16044;52.726;-2.108;2023-09-12T08:07:41;4.40;;;2.72;;
28934;SDS011;16044;52.726;-2.108;2023-09-12T08:10:11;4.18;;;2.60;;
28934;SDS011;16044;52.726;-2.108;2023-09-12T08:12:42;3.13;;;2.22;;
28934;SDS011;16044;52.726;-2.108;2023-09-12T08:15:12;2.92;;;2.30;;
28934;SDS011;16044;52.726;-2.108;2023-09-12T08:17:45;3.10;;;2.10;;
28934;SDS011;16044;52.726;-2.108;2023-09-12T08:20:19;2.90;;;2.10;;
28934;SDS011;16044;52.726;-2.108;2023-09-12T08:22:50;2.72;;;1.77;;
28934;SDS011;16044;52.726;-2.108;2023-09-12T08:25:20;2.60;;;1.80;;
28934;SDS011;16044;52.726;-2.108;2023-09-12T08:27:51;2.63;;;1.85;;
28934;SDS011;16044;52.726;-2.108;2023-09-12T08:30:21;2.30;;;1.70;;
28934;SDS011;16044;52.726;-2.108;2023-09-12T08:32:54;2.92;;;1.67;;
28934;SDS011;16044;52.726;-2.108;2023-09-12T08:35:25;2.28;;;1.48;;
28934;SDS011;16044;52.726;-2.108;2023-09-12T08:37:56;2.67;;;1.90;;
28934;SDS011;16044;52.726;-2.108;2023-09-12T08:40:26;2.67;;;1.63;;
28934;SDS011;16044;52.726;-2.108;2023-09-12T08:42:57;2.75;;;1.70;;
28934;SDS011;16044;52.726;-2.108;2023-09-12T08:45:28;2.17;;;1.55;;
28934;SDS011;16044;52.726;-2.108;2023-09-12T08:48:01;4.25;;;1.70;;
28934;SDS011;16044;52.726;-2.108;2023-09-12T08:50:34;1.85;;;1.52;;
28934;SDS011;16044;52.726;-2.108;2023-09-12T08:53:04;2.85;;;1.70;;
28934;SDS011;16044;52.726;-2.108;2023-09-12T08:55:35;2.30;;;1.70;;
28934;SDS011;16044;52.726;-2.108;2023-09-12T08:58:06;2.83;;;1.80;;
28934;SDS011;16044;52.726;-2.108;2023-09-12T09:00:36;2.47;;;1.70;;
28934;SDS011;16044;52.726;-2.108;2023-09-12T09:03:09;2.63;;;1.88;;
28934;SDS011;16044;52.726;-2.108;2023-09-12T09:05:40;3.55;;;2.00;;
28934;SDS011;16044;52.726;-2.108;2023-09-12T09:08:14;2.70;;;2.00;;
28934;SDS011;16044;52.726;-2.108;2023-09-12T09:10:56;3.00;;;2.25;;
28934;SDS011;16044;52.726;-2.108;2023-09-12T09:13:29;3.08;;;2.00;;
28934;SDS011;16044;52.726;-2.108;2023-09-12T09:16:12;3.47;;;2.33;;
28934;SDS011;16044;52.726;-2.108;2023-09-12T09:18:54;3.10;;;2.30;;
28934;SDS011;16044;52.726;-2.108;2023-09-12T09:21:28;3.47;;;2.20;;
28934;SDS011;16044;52.726;-2.108;2023-09-12T09:24:01;1.45;;;1.20;;
28934;SDS011;16044;52.726;-2.108;2023-09-12T09:26:43;2.45;;;1.30;;
28934;SDS011;16044;52.726;-2.108;2023-09-12T09:29:15;1.70;;;1.05;;
28934;SDS011;16044;52.726;-2.108;2023-09-12T09:31:48;1.40;;;1.15;;
28934;SDS011;16044;52.726;-2.108;2023-09-12T09:34:23;1.63;;;1.30;;
28934;SDS011;16044;52.726;-2.108;2023-09-12T09:36:56;5.32;;;1.70;;
28934;SDS011;16044;52.726;-2.108;2023-09-12T09:39:27;1.42;;;0.85;;
28934;SDS011;16044;52.726;-2.108;2023-09-12T09:41:58;0.80;;;0.60;;
28934;SDS011;16044;52.726;-2.108;2023-09-12T09:44:29;2.40;;;0.60;;
28934;SDS011;16044;52.726;-2.108;2023-09-12T09:47:00;0.85;;;0.50;;
28934;SDS011;16044;52.726;-2.108;2023-09-12T09:49:35;1.52;;;0.60;;
28934;SDS011;16044;52.726;-2.108;2023-09-12T09:52:05;1.05;;;0.50;;
28934;SDS011;16044;52.726;-2.108;2023-09-12T09:54:36;1.33;;;0.43;;
28934;SDS011;16044;52.726;-2.108;2023-09-12T09:57:13;1.42;;;0.50;;
28934;SDS011;16044;52.726;-2.108;2023-09-12T09:59:48;1.52;;;0.50;;
28934;SDS011;16044;52.726;-2.108;2023-09-12T10:02:20;1.48;;;0.30;;
28934;SDS011;16044;52.726;-2.108;2023-09-12T10:04:58;1.77;;;0.40;;
28934;SDS011;16044;52.726;-2.108;2023-09-12T10:07:31;0.45;;;0.20;;
28934;SDS011;16044;52.726;-2.108;2023-09-12T10:10:03;0.55;;;0.30;;
28934;SDS011;16044;52.726;-2.108;2023-09-12T10:12:34;0.55;;;0.30;;
28934;SDS011;16044;52.726;-2.108;2023-09-12T10:15:07;3.22;;;0.30;;
28934;SDS011;16044;52.726;-2.108;2023-09-12T10:20:16;0.85;;;0.40;;
28934;SDS011;16044;52.726;-2.108;2023-09-12T10:22:53;1.05;;;0.43;;
28934;SDS011;16044;52.726;-2.108;2023-09-12T10:25:37;2.03;;;0.30;;
28934;SDS011;16044;52.726;-2.108;2023-09-12T10:28:09;0.95;;;0.40;;
28934;SDS011;16044;52.726;-2.108;2023-09-12T10:30:41;1.75;;;0.40;;
28934;SDS011;16044;52.726;-2.108;2023-09-12T10:33:13;0.52;;;0.20;;
28934;SDS011;16044;52.726;-2.108;2023-09-12T10:35:47;3.53;;;0.30;;
28934;SDS011;16044;52.726;-2.108;2023-09-12T10:38:20;2.20;;;0.40;;
28934;SDS011;16044;52.726;-2.108;2023-09-12T10:40:53;2.75;;;0.30;;
28934;SDS011;16044;52.726;-2.108;2023-09-12T10:43:25;0.38;;;0.20;;
28934;SDS011;16044;52.726;-2.108;2023-09-12T10:45:56;1.77;;;0.30;;
28934;SDS011;16044;52.726;-2.108;2023-09-12T10:48:29;0.68;;;0.28;;
28934;SDS011;16044;52.726;-2.108;2023-09-12T10:51:02;4.20;;;0.47;;
28934;SDS011;16044;52.726;-2.108;2023-09-12T10:53:34;2.78;;;0.22;;
28934;SDS011;16044;52.726;-2.108;2023-09-12T10:56:16;1.08;;;0.20;;
28934;SDS011;16044;52.726;-2.108;2023-09-12T11:01:43;1.02;;;0.20;;
28934;SDS011;16044;52.726;-2.108;2023-09-12T11:10:15;0.77;;;0.20;;
28934;SDS011;16044;52.726;-2.108;2023-09-12T11:12:51;0.40;;;0.20;;
28934;SDS011;16044;52.726;-2.108;2023-09-12T11:15:24;1.05;;;0.30;;
28934;SDS011;16044;52.726;-2.108;2023-09-12T11:18:01;0.60;;;0.20;;
28934;SDS011;16044;52.726;-2.108;2023-09-12T11:23:25;0.20;;;0.20;;
28934;SDS011;16044;52.726;-2.108;2023-09-12T11:26:04;0.65;;;0.20;;
28934;SDS011;16044;52.726;-2.108;2023-09-12T11:28:38;1.63;;;0.20;;
28934;SDS011;16044;52.726;-2.108;2023-09-12T11:31:11;0.73;;;0.20;;
28934;SDS011;16044;52.726;-2.108;2023-09-12T11:33:43;0.90;;;0.20;;
28934;SDS011;16044;52.726;-2.108;2023-09-12T11:36:14;0.75;;;0.30;;
28934;SDS011;16044;52.726;-2.108;2023-09-12T11:38:47;1.48;;;0.35;;
28934;SDS011;16044;52.726;-2.108;2023-09-12T11:44:10;0.40;;;0.20;;
28934;SDS011;16044;52.726;-2.108;2023-09-12T11:46:42;0.98;;;0.20;;
28934;SDS011;16044;52.726;-2.108;2023-09-12T11:49:13;2.83;;;0.30;;
28934;SDS011;16044;52.726;-2.108;2023-09-12T11:51:48;0.82;;;0.30;;
28934;SDS011;16044;52.726;-2.108;2023-09-12T11:54:24;0.45;;;0.20;;
28934;SDS011;16044;52.726;-2.108;2023-09-12T11:56:55;3.08;;;0.28;;
28934;SDS011;16044;52.726;-2.108;2023-09-12T11:59:27;1.55;;;0.22;;
28934;SDS011;16044;52.726;-2.108;2023-09-12T12:01:58;1.17;;;0.30;;
28934;SDS011;16044;52.726;-2.108;2023-09-12T12:04:28;0.38;;;0.20;;
28934;SDS011;16044;52.726;-2.108;2023-09-12T12:06:59;1.50;;;0.32;;
28934;SDS011;16044;52.726;-2.108;2023-09-12T12:09:33;1.48;;;0.30;;
28934;SDS011;16044;52.726;-2.108;2023-09-12T12:12:08;0.38;;;0.20;;
28934;SDS011;16044;52.726;-2.108;2023-09-12T12:14:40;2.03;;;0.35;;
28934;SDS011;16044;52.726;-2.108;2023-09-12T12:17:15;0.65;;;0.25;;
28934;SDS011;16044;52.726;-2.108;2023-09-12T12:19:45;1.33;;;0.32;;
28934;SDS011;16044;52.726;-2.108;2023-09-12T12:22:16;1.35;;;0.20;;
28934;SDS011;16044;52.726;-2.108;2023-09-12T12:24:49;0.80;;;0.30;;
28934;SDS011;16044;52.726;-2.108;2023-09-12T12:27:20;1.20;;;0.30;;
28934;SDS011;16044;52.726;-2.108;2023-09-12T12:29:51;2.67;;;0.40;;
28934;SDS011;16044;52.726;-2.108;2023-09-12T12:32:21;1.58;;;0.60;;
28934;SDS011;16044;52.726;-2.108;2023-09-12T12:34:51;1.27;;;0.60;;
28934;SDS011;16044;52.726;-2.108;2023-09-12T12:37:27;3.03;;;0.70;;
28934;SDS011;16044;52.726;-2.108;2023-09-12T12:40:02;1.70;;;0.60;;
28934;SDS011;16044;52.726;-2.108;2023-09-12T12:42:35;1.42;;;0.80;;
28934;SDS011;16044;52.726;-2.108;2023-09-12T12:45:20;1.27;;;0.77;;
28934;SDS011;16044;52.726;-2.108;2023-09-12T12:47:57;1.60;;;0.80;;
28934;SDS011;16044;52.726;-2.108;2023-09-12T12:50:28;3.75;;;0.82;;
28934;SDS011;16044;52.726;-2.108;2023-09-12T12:52:59;3.65;;;0.90;;
28934;SDS011;16044;52.726;-2.108;2023-09-12T12:55:32;3.53;;;0.82;;
28934;SDS011;16044;52.726;-2.108;2023-09-12T12:58:03;1.20;;;0.52;;
28934;SDS011;16044;52.726;-2.108;2023-09-12T13:00:33;2.08;;;0.82;;
28934;SDS011;16044;52.726;-2.108;2023-09-12T13:03:04;1.25;;;0.65;;
28934;SDS011;16044;52.726;-2.108;2023-09-12T13:05:34;3.08;;;0.80;;
28934;SDS011;16044;52.726;-2.108;2023-09-12T13:08:07;1.80;;;0.80;;
28934;SDS011;16044;52.726;-2.108;2023-09-12T13:10:40;2.00;;;0.88;;
28934;SDS011;16044;52.726;-2.108;2023-09-12T13:13:11;3.92;;;1.00;;
28934;SDS011;16044;52.726;-2.108;2023-09-12T13:15:41;2.53;;;0.88;;
28934;SDS011;16044;52.726;-2.108;2023-09-12T13:18:12;3.30;;;0.90;;
28934;SDS011;16044;52.726;-2.108;2023-09-12T13:20:42;1.50;;;0.88;;
28934;SDS011;16044;52.726;-2.108;2023-09-12T13:23:13;2.45;;;1.00;;
28934;SDS011;16044;52.726;-2.108;2023-09-12T13:25:46;1.13;;;0.60;;
28934;SDS011;16044;52.726;-2.108;2023-09-12T13:28:16;2.05;;;0.70;;
28934;SDS011;16044;52.726;-2.108;2023-09-12T13:30:46;0.98;;;0.70;;
28934;SDS011;16044;52.726;-2.108;2023-09-12T13:33:17;1.35;;;0.70;;
28934;SDS011;16044;52.726;-2.108;2023-09-12T13:35:48;1.00;;;0.63;;
28934;SDS011;16044;52.726;-2.108;2023-09-12T13:38:19;4.75;;;0.82;;
28934;SDS011;16044;52.726;-2.108;2023-09-12T13:40:52;2.35;;;0.70;;
28934;SDS011;16044;52.726;-2.108;2023-09-12T13:43:23;1.70;;;0.80;;
28934;SDS011;16044;52.726;-2.108;2023-09-12T13:45:54;2.63;;;0.68;;
28934;SDS011;16044;52.726;-2.108;2023-09-12T13:48:25;1.20;;;0.68;;
28934;SDS011;16044;52.726;-2.108;2023-09-12T13:50:55;2.08;;;0.52;;
28934;SDS011;16044;52.726;-2.108;2023-09-12T13:53:25;1.67;;;0.60;;
28934;SDS011;16044;52.726;-2.108;2023-09-12T13:55:59;3.05;;;0.55;;
28934;SDS011;16044;52.726;-2.108;2023-09-12T13:58:32;1.67;;;0.45;;
28934;SDS011;16044;52.726;-2.108;2023-09-12T14:01:13;0.80;;;0.50;;
28934;SDS011;16044;52.726;-2.108;2023-09-12T14:06:31;3.05;;;0.70;;
28934;SDS011;16044;52.726;-2.108;2023-09-12T14:09:04;2.90;;;0.60;;
28934;SDS011;16044;52.726;-2.108;2023-09-12T14:11:37;2.83;;;0.75;;
28934;SDS011;16044;52.726;-2.108;2023-09-12T14:14:08;0.98;;;0.50;;
28934;SDS011;16044;52.726;-2.108;2023-09-12T14:16:42;1.00;;;0.60;;
28934;SDS011;16044;52.726;-2.108;2023-09-12T14:19:15;0.88;;;0.50;;
28934;SDS011;16044;52.726;-2.108;2023-09-12T14:21:46;2.58;;;0.70;;
28934;SDS011;16044;52.726;-2.108;2023-09-12T14:24:19;1.17;;;0.50;;
28934;SDS011;16044;52.726;-2.108;2023-09-12T14:26:54;3.53;;;0.60;;
28934;SDS011;16044;52.726;-2.108;2023-09-12T14:29:26;1.70;;;0.50;;
28934;SDS011;16044;52.726;-2.108;2023-09-12T14:31:57;2.47;;;0.60;;
28934;SDS011;16044;52.726;-2.108;2023-09-12T14:34:27;1.50;;;0.80;;
28934;SDS011;16044;52.726;-2.108;2023-09-12T14:36:59;1.33;;;0.60;;
28934;SDS011;16044;52.726;-2.108;2023-09-12T14:39:29;1.50;;;0.70;;
28934;SDS011;16044;52.726;-2.108;2023-09-12T14:42:02;2.60;;;0.80;;
28934;SDS011;16044;52.726;-2.108;2023-09-12T14:44:35;2.10;;;0.80;;
28934;SDS011;16044;52.726;-2.108;2023-09-12T14:47:07;3.22;;;0.75;;
28934;SDS011;16044;52.726;-2.108;2023-09-12T14:49:37;3.70;;;1.05;;
28934;SDS011;16044;52.726;-2.108;2023-09-12T14:52:16;2.28;;;1.15;;
28934;SDS011;16044;52.726;-2.108;2023-09-12T14:54:53;2.80;;;1.27;;
28934;SDS011;16044;52.726;-2.108;2023-09-12T14:57:28;5.40;;;1.35;;
28934;SDS011;16044;52.726;-2.108;2023-09-12T14:59:59;4.25;;;1.13;;
28934;SDS011;16044;52.726;-2.108;2023-09-12T15:02:30;2.10;;;1.17;;
28934;SDS011;16044;52.726;-2.108;2023-09-12T15:05:01;3.38;;;1.50;;
28934;SDS011;16044;52.726;-2.108;2023-09-12T15:07:32;3.70;;;2.22;;
28934;SDS011;16044;52.726;-2.108;2023-09-12T15:10:04;4.57;;;2.53;;
28934;SDS011;16044;52.726;-2.108;2023-09-12T15:12:38;5.38;;;2.83;;
28934;SDS011;16044;52.726;-2.108;2023-09-12T15:15:09;11.63;;;5.40;;
28934;SDS011;16044;52.726;-2.108;2023-09-12T15:17:40;15.18;;;7.07;;
28934;SDS011;16044;52.726;-2.108;2023-09-12T15:20:11;12.80;;;6.60;;
28934;SDS011;16044;52.726;-2.108;2023-09-12T15:22:41;15.40;;;6.80;;
28934;SDS011;16044;52.726;-2.108;2023-09-12T15:25:12;24.80;;;12.25;;
28934;SDS011;16044;52.726;-2.108;2023-09-12T15:27:45;21.95;;;12.10;;